createdAt,value
2023-01-06T00:00:45.789Z,99640.22
2023-01-06T00:03:35.180Z,99630.91
2023-01-06T00:06:28.446Z,99615.09
2023-01-06T00:09:18.147Z,99616.16
2023-01-06T00:12:09.571Z,99634.78
2023-01-06T00:14:59.441Z,99636.66
2023-01-06T00:17:49.163Z,99626.25
2023-01-06T00:20:38.986Z,99634.63
2023-01-06T00:23:28.654Z,99646.88
2023-01-06T00:26:18.301Z,99640.63
2023-01-06T00:29:11.082Z,99657.66
2023-01-06T00:32:02.088Z,99656.28
2023-01-06T00:34:52.086Z,99649.38
2023-01-06T00:37:41.472Z,99645.81
2023-01-06T00:40:30.962Z,99661.41
2023-01-06T00:43:21.674Z,99660.22
2023-01-06T00:46:11.336Z,99642.25
2023-01-06T00:49:06.239Z,99658.03
2023-01-06T00:51:56.723Z,99671.59
2023-01-06T00:54:46.501Z,99682.66
2023-01-06T00:57:36.985Z,99679.69
2023-01-06T01:00:26.490Z,99681.69
2023-01-06T01:03:16.012Z,99684.41
2023-01-06T01:06:07.944Z,99686.34
2023-01-06T01:08:59.817Z,99677.47
2023-01-06T01:12:08.269Z,99688.47
2023-01-06T01:14:58.250Z,99711.81
2023-01-06T01:17:47.865Z,99704.94
2023-01-06T01:20:38.840Z,99704.53
2023-01-06T01:23:28.586Z,99713.09
2023-01-06T01:25:59.236Z,99730.41
2023-01-06T01:28:28.307Z,99735.13
2023-01-06T01:31:01.856Z,99726.41
2023-01-06T01:33:31.882Z,99733.38
2023-01-06T01:36:08.675Z,99743.41
2023-01-06T01:38:38.650Z,99738.25
2023-01-06T01:41:08.578Z,99741.63
2023-01-06T01:43:48.505Z,99745.81
2023-01-06T01:46:43.798Z,99755.78
2023-01-06T01:49:24.903Z,99755.31
2023-01-06T01:51:57.651Z,99755.09
2023-01-06T01:54:31.102Z,99760.97
2023-01-06T01:57:08.020Z,99754.16
2023-01-06T01:59:40.832Z,99741.78
2023-01-06T02:02:10.691Z,99750.88
2023-01-06T02:04:45.042Z,99756.97
2023-01-06T02:07:14.548Z,99753.19
2023-01-06T02:09:53.393Z,99757.72
2023-01-06T02:12:22.879Z,99746.13
2023-01-06T02:14:52.018Z,99740.84
2023-01-06T02:17:24.295Z,99761.38
2023-01-06T02:20:05.885Z,99765.56
2023-01-06T02:22:35.386Z,99766.72
2023-01-06T02:25:40.391Z,99764.63
2023-01-06T02:28:31.462Z,99764.25
2023-01-06T02:31:20.718Z,99765.59
2023-01-06T02:34:25.348Z,99776.03
2023-01-06T02:37:08.397Z,99790.47
2023-01-06T02:40:01.909Z,99802.94
2023-01-06T02:42:35.590Z,99802.66
2023-01-06T02:45:25.814Z,99807.22
2023-01-06T02:48:02.464Z,99817.25
2023-01-06T02:50:55.483Z,99825.63
2023-01-06T02:53:37.106Z,99829.19
2023-01-06T02:56:07.319Z,99834.06
2023-01-06T02:58:51.569Z,99837.34
2023-01-06T03:01:30.413Z,99837.97
2023-01-06T03:04:03.730Z,99834.63
2023-01-06T03:06:36.390Z,99849.28
2023-01-06T03:09:06.772Z,99846.66
2023-01-06T03:11:45.530Z,99843.66
2023-01-06T03:14:37.605Z,99848.59
2023-01-06T03:17:07.144Z,99851.91
2023-01-06T03:19:36.774Z,99850.16
2023-01-06T03:22:09.957Z,99856.53
2023-01-06T03:24:39.458Z,99848.28
2023-01-06T03:27:11.356Z,99854.41
2023-01-06T03:29:42.745Z,99857.69
2023-01-06T03:32:28.363Z,99850.59
2023-01-06T03:35:32.651Z,99853.38
2023-01-06T03:38:10.710Z,99856.25
2023-01-06T03:40:54.537Z,99849.72
2023-01-06T03:43:36.177Z,99851.66
2023-01-06T03:46:24.533Z,99861.47
2023-01-06T03:48:59.660Z,99879.84
2023-01-06T03:51:35.727Z,99882.78
2023-01-06T03:54:26.956Z,99887.72
2023-01-06T03:57:29.673Z,99890.66
2023-01-06T04:00:16.135Z,99897.94
2023-01-06T04:02:53.549Z,99898.13
2023-01-06T04:05:28.451Z,99902.94
2023-01-06T04:07:59.876Z,99919.75
2023-01-06T04:10:29.856Z,99916.31
2023-01-06T04:13:00.748Z,99925.44
2023-01-06T04:15:35.041Z,99920.72
2023-01-06T04:18:08.355Z,99929.78
2023-01-06T04:20:40.615Z,99930.13
2023-01-06T04:23:27.087Z,99933.28
2023-01-06T04:25:56.360Z,99936.50
2023-01-06T04:28:33.329Z,99933.06
2023-01-06T04:31:05.842Z,99945.94
2023-01-06T04:33:37.576Z,99940.03
2023-01-06T04:36:09.967Z,99944.94
2023-01-06T04:38:42.537Z,99946.47
2023-01-06T04:41:11.633Z,99943.50
2023-01-06T04:43:40.680Z,99949.94
2023-01-06T04:46:10.286Z,99953.44
2023-01-06T04:48:39.634Z,99954.50
2023-01-06T04:51:10.971Z,99956.78
2023-01-06T04:53:42.299Z,99961.97
2023-01-06T04:56:13.704Z,99967.09
2023-01-06T04:58:42.927Z,99963.94
2023-01-06T05:01:14.571Z,99963.13
2023-01-06T05:03:44.243Z,99958.53
2023-01-06T05:06:13.979Z,99961.25
2023-01-06T05:08:44.327Z,99960.97
2023-01-06T05:11:19.500Z,99958.56
2023-01-06T05:13:49.194Z,99956.25
2023-01-06T05:16:33.458Z,99947.47
2023-01-06T05:19:03.627Z,99949.31
2023-01-06T05:21:33.086Z,99947.91
2023-01-06T05:24:02.760Z,99942.72
2023-01-06T05:26:33.103Z,99941.38
2023-01-06T05:29:02.566Z,99937.59
2023-01-06T05:31:31.914Z,99935.09
2023-01-06T05:34:01.158Z,99929.56
2023-01-06T05:36:30.311Z,99946.16
2023-01-06T05:38:59.485Z,99944.97
2023-01-06T05:41:28.564Z,99954.31
2023-01-06T05:43:59.258Z,99954.22
2023-01-06T05:46:28.644Z,99937.00
2023-01-06T05:48:57.690Z,99938.81
2023-01-06T05:51:26.761Z,99934.91
2023-01-06T05:53:55.621Z,99944.31
2023-01-06T05:56:25.851Z,99945.34
2023-01-06T05:58:55.973Z,99945.25
2023-01-06T06:01:27.301Z,99939.72
2023-01-06T06:03:56.962Z,99939.06
2023-01-06T06:06:27.971Z,99947.19
2023-01-06T06:08:57.453Z,99955.38
2023-01-06T06:11:26.702Z,99953.81
2023-01-06T06:13:57.986Z,99947.28
2023-01-06T06:16:29.827Z,99941.44
2023-01-06T06:19:00.523Z,99934.91
2023-01-06T06:21:32.753Z,99924.13
2023-01-06T06:24:02.092Z,99918.56
2023-01-06T06:26:31.518Z,99916.38
2023-01-06T06:29:01.145Z,99922.22
2023-01-06T06:31:31.615Z,99921.84
2023-01-06T06:34:03.103Z,99916.03
2023-01-06T06:36:34.158Z,99914.06
2023-01-06T06:39:03.672Z,99908.94
2023-01-06T06:41:32.935Z,99900.69
2023-01-06T06:44:05.169Z,99893.72
2023-01-06T06:46:34.806Z,99900.03
2023-01-06T06:49:04.183Z,99896.53
2023-01-06T06:51:33.358Z,99886.00
2023-01-06T06:54:02.833Z,99883.97
2023-01-06T06:56:31.920Z,99878.16
2023-01-06T06:59:01.044Z,99871.00
2023-01-06T07:01:32.791Z,99868.09
2023-01-06T07:04:01.935Z,99870.13
2023-01-06T07:06:30.986Z,99866.16
2023-01-06T07:09:00.479Z,99868.66
2023-01-06T07:11:30.211Z,99866.25
2023-01-06T07:13:59.570Z,99869.75
2023-01-06T07:16:28.457Z,99875.25
2023-01-06T07:18:57.807Z,99867.66
2023-01-06T07:21:27.200Z,99864.84
2023-01-06T07:23:56.905Z,99860.44
2023-01-06T07:26:26.569Z,99846.59
2023-01-06T07:28:55.700Z,99836.94
2023-01-06T07:31:25.010Z,99831.38
2023-01-06T07:33:55.029Z,99820.38
2023-01-06T07:36:24.375Z,99828.06
2023-01-06T07:38:54.358Z,99831.03
2023-01-06T07:41:23.440Z,99841.88
2023-01-06T07:43:53.091Z,99843.38
2023-01-06T07:46:22.692Z,99847.69
2023-01-06T07:48:52.358Z,99852.81
2023-01-06T07:51:21.745Z,99853.00
2023-01-06T07:53:51.100Z,99848.78
2023-01-06T07:56:20.486Z,99834.50
2023-01-06T07:58:49.842Z,99822.22
2023-01-06T08:01:19.153Z,99810.09
2023-01-06T08:03:48.139Z,99808.41
2023-01-06T08:06:17.608Z,99801.56
2023-01-06T08:08:46.494Z,99790.69
2023-01-06T08:11:16.064Z,99785.19
2023-01-06T08:13:45.286Z,99776.59
2023-01-06T08:16:15.026Z,99769.69
2023-01-06T08:18:44.404Z,99781.59
2023-01-06T08:21:13.625Z,99778.78
2023-01-06T08:23:42.885Z,99775.91
2023-01-06T08:26:17.435Z,99768.47
2023-01-06T08:28:48.181Z,99758.09
2023-01-06T08:31:21.088Z,99773.50
2023-01-06T08:33:52.835Z,99784.44
2023-01-06T08:36:24.987Z,99780.34
2023-01-06T08:38:54.052Z,99769.75
2023-01-06T08:41:23.699Z,99763.16
2023-01-06T08:43:53.073Z,99759.13
2023-01-06T08:46:22.353Z,99746.63
2023-01-06T08:48:51.711Z,99742.25
2023-01-06T08:51:24.730Z,99732.75
2023-01-06T08:53:54.529Z,99719.38
2023-01-06T08:56:27.912Z,99709.94
2023-01-06T08:59:00.824Z,99716.81
2023-01-06T09:01:36.290Z,99718.63
2023-01-06T09:04:07.999Z,99724.56
2023-01-06T09:06:38.097Z,99719.53
2023-01-06T09:09:09.058Z,99722.84
2023-01-06T09:11:39.062Z,99714.28
2023-01-06T09:14:09.980Z,99704.34
2023-01-06T09:16:42.509Z,99716.34
2023-01-06T09:19:11.918Z,99721.38
2023-01-06T09:21:43.819Z,99717.53
2023-01-06T09:24:17.108Z,99707.97
2023-01-06T09:26:46.508Z,99700.91
2023-01-06T09:29:15.820Z,99701.16
2023-01-06T09:31:45.274Z,99699.56
2023-01-06T09:34:14.675Z,99695.69
2023-01-06T09:36:43.707Z,99690.91
2023-01-06T09:39:13.256Z,99696.13
2023-01-06T09:41:46.538Z,99698.06
2023-01-06T09:44:33.317Z,99695.56
2023-01-06T09:47:04.468Z,99698.00
2023-01-06T09:50:03.615Z,99702.75
2023-01-06T09:53:05.134Z,99718.88
2023-01-06T09:55:59.015Z,99719.84
2023-01-06T09:58:35.993Z,99719.88
2023-01-06T10:01:14.764Z,99698.41
2023-01-06T10:03:48.957Z,99704.50
2023-01-06T10:06:39.158Z,99690.97
2023-01-06T10:09:45.093Z,99680.63
2023-01-06T10:12:29.384Z,99692.53
2023-01-06T10:15:02.253Z,99685.31
2023-01-06T10:17:49.897Z,99679.75
2023-01-06T10:20:21.778Z,99682.03
2023-01-06T10:22:58.117Z,99684.69
2023-01-06T10:25:34.895Z,99689.09
2023-01-06T10:28:30.630Z,99703.75
2023-01-06T10:31:12.462Z,99700.22
2023-01-06T10:33:51.611Z,99703.63
2023-01-06T10:36:34.384Z,99705.97
2023-01-06T10:39:08.205Z,99707.63
2023-01-06T10:41:45.936Z,99706.41
2023-01-06T10:44:16.071Z,99712.03
2023-01-06T10:46:48.095Z,99723.22
2023-01-06T10:49:20.212Z,99719.94
2023-01-06T10:52:00.533Z,99723.13
2023-01-06T10:54:37.717Z,99718.41
2023-01-06T10:57:18.526Z,99704.28
2023-01-06T11:00:10.969Z,99691.22
2023-01-06T11:03:19.449Z,99689.88
2023-01-06T11:06:04.534Z,99714.66
2023-01-06T11:08:34.641Z,99718.09
2023-01-06T11:11:27.256Z,99715.19
2023-01-06T11:14:05.962Z,99717.50
2023-01-06T11:16:38.632Z,99717.09
2023-01-06T11:19:22.936Z,99698.47
2023-01-06T11:21:52.238Z,99700.09
2023-01-06T11:24:25.679Z,99699.47
2023-01-06T11:27:18.108Z,99700.25
2023-01-06T11:29:48.040Z,99707.59
2023-01-06T11:32:30.950Z,99699.19
2023-01-06T11:35:06.874Z,99697.34
2023-01-06T11:37:44.681Z,99700.34
2023-01-06T11:40:31.003Z,99699.84
2023-01-06T11:43:13.323Z,99696.50
2023-01-06T11:45:48.971Z,99697.34
2023-01-06T11:48:20.484Z,99688.00
2023-01-06T11:51:06.849Z,99689.09
2023-01-06T11:53:36.647Z,99681.19
2023-01-06T11:56:24.622Z,99675.28
2023-01-06T11:59:03.021Z,99679.44
2023-01-06T12:02:00.394Z,99678.72
2023-01-06T12:04:49.102Z,99664.88
2023-01-06T12:07:33.920Z,99666.66
2023-01-06T12:10:11.857Z,99662.19
2023-01-06T12:12:41.056Z,99667.94
2023-01-06T12:15:18.911Z,99679.72
2023-01-06T12:17:55.424Z,99687.56
2023-01-06T12:20:45.120Z,99678.94
2023-01-06T12:23:25.650Z,99675.47
2023-01-06T12:26:03.011Z,99678.84
2023-01-06T12:28:42.496Z,99696.50
2023-01-06T12:31:51.656Z,99688.47
2023-01-06T12:34:39.499Z,99685.28
2023-01-06T12:37:11.523Z,99682.91
2023-01-06T12:40:03.780Z,99681.88
2023-01-06T12:42:48.439Z,99684.16
2023-01-06T12:45:32.447Z,99696.09
2023-01-06T12:48:08.718Z,99699.03
2023-01-06T12:50:46.818Z,99698.03
2023-01-06T12:53:21.157Z,99697.25
2023-01-06T12:56:20.029Z,99704.03
2023-01-06T12:58:59.777Z,99696.41
2023-01-06T13:01:50.969Z,99702.78
2023-01-06T13:04:41.424Z,99705.28
2023-01-06T13:07:26.321Z,99713.66
2023-01-06T13:10:04.318Z,99711.22
2023-01-06T13:12:47.326Z,99703.47
2023-01-06T13:15:16.545Z,99701.34
2023-01-06T13:18:23.939Z,99694.34
2023-01-06T13:21:14.811Z,99708.03
2023-01-06T13:23:53.214Z,99709.75
2023-01-06T13:26:30.831Z,99712.44
2023-01-06T13:29:08.798Z,99694.31
2023-01-06T13:32:01.958Z,99700.81
2023-01-06T13:34:46.315Z,99702.91
2023-01-06T13:37:30.111Z,99701.41
2023-01-06T13:40:01.138Z,99708.19
2023-01-06T13:42:42.617Z,99711.50
2023-01-06T13:45:26.127Z,99716.06
2023-01-06T13:47:55.875Z,99719.16
2023-01-06T13:50:27.481Z,99725.56
2023-01-06T13:52:57.555Z,99720.50
2023-01-06T13:55:39.931Z,99725.94
2023-01-06T13:58:27.763Z,99733.94
2023-01-06T14:01:17.361Z,99747.63
2023-01-06T14:03:50.987Z,99755.75
2023-01-06T14:06:26.318Z,99755.81
2023-01-06T14:09:00.888Z,99759.78
2023-01-06T14:11:34.036Z,99772.66
2023-01-06T14:14:09.501Z,99773.38
2023-01-06T14:16:48.338Z,99779.25
2023-01-06T14:19:24.106Z,99784.50
2023-01-06T14:21:57.326Z,99782.66
2023-01-06T14:24:36.085Z,99787.59
2023-01-06T14:27:08.208Z,99790.44
2023-01-06T14:29:44.097Z,99787.34
2023-01-06T14:32:36.244Z,99788.81
2023-01-06T14:35:12.698Z,99798.19
2023-01-06T14:37:52.687Z,99794.00
2023-01-06T14:40:39.207Z,99791.28
2023-01-06T14:43:26.701Z,99793.41
2023-01-06T14:45:57.518Z,99780.41
2023-01-06T14:48:30.284Z,99783.25
2023-01-06T14:50:59.841Z,99778.66
2023-01-06T14:53:34.688Z,99783.34
2023-01-06T14:56:06.201Z,99788.44
2023-01-06T14:58:40.333Z,99789.38
2023-01-06T15:01:24.332Z,99787.78
2023-01-06T15:03:58.640Z,99787.63
2023-01-06T15:06:29.750Z,99791.88
2023-01-06T15:09:23.906Z,99790.44
2023-01-06T15:11:53.522Z,99796.06
2023-01-06T15:14:30.824Z,99793.88
2023-01-06T15:17:04.722Z,99791.13
2023-01-06T15:19:35.728Z,99791.00
2023-01-06T15:22:09.781Z,99794.69
2023-01-06T15:24:44.253Z,99794.81
2023-01-06T15:27:16.799Z,99787.16
2023-01-06T15:29:56.231Z,99787.53
2023-01-06T15:32:28.210Z,99788.97
2023-01-06T15:35:00.421Z,99779.59
2023-01-06T15:37:35.741Z,99778.78
2023-01-06T15:40:07.274Z,99767.66
2023-01-06T15:42:37.945Z,99765.78
2023-01-06T15:45:08.085Z,99770.88
2023-01-06T15:47:43.723Z,99765.13
2023-01-06T15:50:22.571Z,99757.44
2023-01-06T15:52:55.689Z,99752.69
2023-01-06T15:55:44.177Z,99748.84
2023-01-06T15:58:33.919Z,99745.56
2023-01-06T16:01:05.046Z,99741.06
2023-01-06T16:03:35.141Z,99750.19
2023-01-06T16:06:12.383Z,99752.28
2023-01-06T16:08:44.440Z,99756.28
2023-01-06T16:11:38.289Z,99753.84
2023-01-06T16:14:25.214Z,99755.53
2023-01-06T16:16:55.716Z,99778.66
2023-01-06T16:19:24.822Z,99784.59
2023-01-06T16:21:55.864Z,99792.25
2023-01-06T16:24:30.185Z,99784.59
2023-01-06T16:27:07.385Z,99778.06
2023-01-06T16:29:39.127Z,99776.16
2023-01-06T16:32:30.148Z,99760.88
2023-01-06T16:35:04.491Z,99743.88
2023-01-06T16:37:36.934Z,99752.31
2023-01-06T16:40:07.265Z,99752.97
2023-01-06T16:42:46.144Z,99748.13
2023-01-06T16:45:28.102Z,99746.31
2023-01-06T16:47:58.006Z,99732.56
2023-01-06T16:50:34.335Z,99738.09
2023-01-06T16:53:11.048Z,99745.28
2023-01-06T16:55:43.204Z,99771.22
2023-01-06T16:58:21.629Z,99764.44
2023-01-06T17:00:57.842Z,99766.13
2023-01-06T17:04:12.166Z,99774.28
2023-01-06T17:06:44.051Z,99775.66
2023-01-06T17:09:23.238Z,99776.09
2023-01-06T17:11:54.039Z,99780.28
2023-01-06T17:14:25.316Z,99783.34
2023-01-06T17:16:54.650Z,99770.59
2023-01-06T17:19:29.534Z,99770.81
2023-01-06T17:22:22.961Z,99776.97
2023-01-06T17:24:57.345Z,99768.41
2023-01-06T17:27:31.243Z,99769.50
2023-01-06T17:30:08.777Z,99772.66
2023-01-06T17:32:44.673Z,99772.72
2023-01-06T17:35:29.481Z,99782.31
2023-01-06T17:38:13.651Z,99762.97
2023-01-06T17:40:48.094Z,99763.72
2023-01-06T17:43:38.401Z,99754.06
2023-01-06T17:46:37.563Z,99768.63
2023-01-06T17:49:34.151Z,99763.34
2023-01-06T17:52:16.120Z,99754.13
2023-01-06T17:55:23.903Z,99757.06
2023-01-06T17:57:57.208Z,99744.38
2023-01-06T18:00:33.299Z,99747.84
2023-01-06T18:03:16.151Z,99759.97
2023-01-06T18:05:46.173Z,99756.28
2023-01-06T18:08:21.283Z,99756.50
2023-01-06T18:10:58.255Z,99754.59
2023-01-06T18:13:42.985Z,99763.22
2023-01-06T18:16:36.240Z,99758.22
2023-01-06T18:19:33.200Z,99741.03
2023-01-06T18:22:14.117Z,99734.09
2023-01-06T18:24:44.203Z,99736.44
2023-01-06T18:27:19.441Z,99740.66
2023-01-06T18:29:49.440Z,99747.25
2023-01-06T18:32:33.654Z,99751.16
2023-01-06T18:35:10.291Z,99758.59
2023-01-06T18:37:39.725Z,99760.88
2023-01-06T18:40:20.110Z,99738.84
2023-01-06T18:42:51.813Z,99731.97
2023-01-06T18:45:24.137Z,99731.84
2023-01-06T18:48:09.467Z,99713.09
2023-01-06T18:50:44.772Z,99701.19
2023-01-06T18:53:26.224Z,99703.69
2023-01-06T18:55:59.854Z,99694.13
2023-01-06T18:58:48.163Z,99679.09
2023-01-06T19:01:23.405Z,99666.13
2023-01-06T19:04:06.748Z,99675.25
2023-01-06T19:06:46.128Z,99698.28
2023-01-06T19:09:30.018Z,99715.41
2023-01-06T19:12:11.415Z,99709.84
2023-01-06T19:14:46.831Z,99727.84
2023-01-06T19:17:41.655Z,99732.94
2023-01-06T19:20:24.374Z,99731.22
2023-01-06T19:22:56.037Z,99718.97
2023-01-06T19:25:36.567Z,99723.81
2023-01-06T19:28:19.045Z,99724.31
2023-01-06T19:31:00.449Z,99717.00
2023-01-06T19:34:03.602Z,99703.41
2023-01-06T19:36:41.280Z,99701.81
2023-01-06T19:39:28.152Z,99691.88
2023-01-06T19:42:18.815Z,99699.53
2023-01-06T19:44:51.711Z,99712.91
2023-01-06T19:47:22.841Z,99696.19
2023-01-06T19:49:56.919Z,99702.91
2023-01-06T19:52:42.691Z,99710.94
2023-01-06T19:55:24.002Z,99721.09
2023-01-06T19:57:59.884Z,99741.94
2023-01-06T20:00:45.239Z,99731.72
2023-01-06T20:03:26.204Z,99711.47
2023-01-06T20:05:55.980Z,99705.56
2023-01-06T20:08:25.160Z,99715.84
2023-01-06T20:10:56.281Z,99714.69
2023-01-06T20:13:25.816Z,99722.41
2023-01-06T20:15:54.927Z,99729.50
2023-01-06T20:18:23.962Z,99729.66
2023-01-06T20:20:53.343Z,99717.00
2023-01-06T20:23:22.563Z,99713.56
2023-01-06T20:25:51.562Z,99704.88
2023-01-06T20:28:20.752Z,99696.25
2023-01-06T20:30:50.149Z,99690.47
2023-01-06T20:33:19.534Z,99700.09
2023-01-06T20:35:48.258Z,99692.16
2023-01-06T20:38:17.745Z,99687.38
2023-01-06T20:40:46.846Z,99676.13
2023-01-06T20:43:16.354Z,99664.88
2023-01-06T20:45:45.626Z,99657.59
2023-01-06T20:48:14.809Z,99658.88
2023-01-06T20:50:43.774Z,99655.25
2023-01-06T20:53:13.104Z,99645.00
2023-01-06T20:55:42.187Z,99652.91
2023-01-06T20:58:11.223Z,99652.91
2023-01-06T21:00:40.309Z,99657.25
2023-01-06T21:03:09.399Z,99645.81
2023-01-06T21:05:38.293Z,99645.16
2023-01-06T21:08:07.536Z,99640.84
2023-01-06T21:10:37.680Z,99635.88
2023-01-06T21:13:07.320Z,99626.22
2023-01-06T21:15:36.663Z,99619.56
2023-01-06T21:18:05.927Z,99618.75
2023-01-06T21:20:35.296Z,99619.50
2023-01-06T21:23:04.134Z,99623.69
2023-01-06T21:25:33.433Z,99622.41
2023-01-06T21:28:02.688Z,99616.28
2023-01-06T21:30:33.026Z,99609.47
2023-01-06T21:33:02.321Z,99609.53
2023-01-06T21:35:31.611Z,99609.34
2023-01-06T21:38:00.877Z,99611.13
2023-01-06T21:40:29.874Z,99605.84
2023-01-06T21:43:11.457Z,99597.53
2023-01-06T21:45:46.582Z,99598.41
2023-01-06T21:48:16.080Z,99601.50
2023-01-06T21:50:46.381Z,99604.06
2023-01-06T21:53:16.089Z,99607.91
2023-01-06T21:55:46.078Z,99606.97
2023-01-06T21:58:15.042Z,99604.75
2023-01-06T22:00:44.410Z,99602.59
2023-01-06T22:03:14.062Z,99602.19
2023-01-06T22:05:45.137Z,99601.78
2023-01-06T22:08:14.369Z,99606.84
2023-01-06T22:10:45.239Z,99612.16
2023-01-06T22:13:17.843Z,99608.78
2023-01-06T22:15:46.939Z,99603.94
2023-01-06T22:18:16.504Z,99591.63
2023-01-06T22:20:46.200Z,99581.25
2023-01-06T22:23:19.333Z,99566.91
2023-01-06T22:25:48.993Z,99589.75
2023-01-06T22:28:18.615Z,99595.72
2023-01-06T22:30:48.162Z,99605.81
2023-01-06T22:33:19.104Z,99592.97
2023-01-06T22:35:48.615Z,99591.13
2023-01-06T22:38:17.807Z,99577.09
2023-01-06T22:40:48.333Z,99559.59
2023-01-06T22:43:19.082Z,99552.78
2023-01-06T22:45:55.514Z,99551.47
2023-01-06T22:48:26.022Z,99545.41
2023-01-06T22:51:00.311Z,99554.53
2023-01-06T22:53:31.751Z,99553.53
2023-01-06T22:56:06.258Z,99535.94
2023-01-06T22:58:37.197Z,99534.69
2023-01-06T23:01:07.972Z,99526.28
2023-01-06T23:03:38.574Z,99541.53
2023-01-06T23:06:11.178Z,99535.56
2023-01-06T23:08:58.605Z,99539.47
2023-01-06T23:11:29.702Z,99531.75
2023-01-06T23:14:00.017Z,99522.44
2023-01-06T23:16:30.924Z,99514.75
2023-01-06T23:19:00.638Z,99524.13
2023-01-06T23:21:32.407Z,99529.31
2023-01-06T23:24:01.596Z,99522.03
2023-01-06T23:26:34.995Z,99524.84
2023-01-06T23:29:04.760Z,99520.50
2023-01-06T23:31:37.435Z,99517.19
2023-01-06T23:34:08.319Z,99515.03
2023-01-06T23:36:39.329Z,99518.94
2023-01-06T23:39:10.465Z,99523.19
2023-01-06T23:41:40.482Z,99536.00
2023-01-06T23:44:12.852Z,99532.25
2023-01-06T23:46:42.243Z,99537.78
2023-01-06T23:49:14.102Z,99532.53
2023-01-06T23:51:43.782Z,99518.88
2023-01-06T23:54:13.461Z,99528.09
2023-01-06T23:56:43.371Z,99523.03
2023-01-06T23:59:14.180Z,99522.31
